Time;durP1;ratioP1;P1;durP2;ratioP2;P2;SDS_P1;SDS_P2;PMS_P1;PMS_P2;Temp;Humidity;BMP_temperature;BMP_pressure;BME280_temperature;BME280_humidity;BME280_pressure;Samples;Min_cycle;Max_cycle;Signal;HPM_P1;HPM_P2
2022/12/28 00:02:03;;;;;;;10.35;5.15;;;;;;;2.64;100.00;100004.14;4276925;82;21109;-89
2022/12/28 00:08:05;;;;;;;17.70;6.85;;;;;;;2.53;100.00;99992.45;4273483;82;21089;-90
2022/12/28 00:14:07;;;;;;;11.63;5.42;;;;;;;2.48;100.00;99993.34;4256979;82;21078;-90
2022/12/28 00:20:11;;;;;;;14.35;5.83;;;;;;;2.43;100.00;99989.38;4216369;83;21620;-90
2022/12/28 00:26:13;;;;;;;14.40;5.90;;;;;;;2.31;100.00;99990.41;4208369;83;21057;-89
2022/12/28 00:32:14;;;;;;;19.23;7.12;;;;;;;2.21;100.00;99993.27;4226903;83;21066;-88
2022/12/28 00:38:16;;;;;;;16.77;7.00;;;;;;;2.15;100.00;99993.11;4202712;84;21129;-89
2022/12/28 00:44:18;;;;;;;17.50;7.20;;;;;;;2.08;100.00;99985.95;4254795;83;21666;-89
2022/12/28 00:50:20;;;;;;;15.58;6.70;;;;;;;2.07;100.00;99987.59;4252405;83;22207;-89
2022/12/28 00:56:22;;;;;;;14.63;7.33;;;;;;;2.00;100.00;100000.13;4209578;83;20984;-89
2022/12/28 01:02:24;;;;;;;16.87;6.50;;;;;;;1.89;100.00;100002.72;4271527;83;21029;-88
2022/12/28 01:08:26;;;;;;;14.90;7.25;;;;;;;1.80;100.00;100002.33;4192769;83;21065;-89
2022/12/28 01:14:27;;;;;;;15.98;6.60;;;;;;;1.73;100.00;100002.69;4260175;82;21049;-88
2022/12/28 01:20:29;;;;;;;18.23;7.85;;;;;;;1.72;100.00;100007.03;4268032;81;21055;-89
2022/12/28 01:26:31;;;;;;;34.23;12.23;;;;;;;1.70;100.00;100011.91;4273384;81;21056;-89
2022/12/28 01:32:33;;;;;;;14.15;7.22;;;;;;;1.71;100.00;100004.88;4205905;83;20990;-89
2022/12/28 01:38:35;;;;;;;17.62;7.65;;;;;;;1.74;100.00;99998.11;4207440;83;21033;-89
2022/12/28 01:44:42;;;;;;;16.37;7.12;;;;;;;1.71;100.00;99994.64;4182692;83;21063;-89
2022/12/28 01:50:48;;;;;;;;;;;;;;;1.72;100.00;99992.19;4207236;83;21199;-90
2022/12/28 01:56:55;;;;;;;14.90;6.80;;;;;;;1.65;100.00;99979.05;4238132;82;20143;-90
2022/12/28 02:03:05;;;;;;;11.88;6.37;;;;;;;1.60;100.00;99975.07;4236501;82;21061;-90
2022/12/28 02:09:15;;;;;;;13.22;6.15;;;;;;;1.54;100.00;99971.66;4233829;82;21174;-88
2022/12/28 02:15:23;;;;;;;11.53;5.92;;;;;;;1.45;100.00;99968.02;4236593;81;21148;-89
2022/12/28 02:21:58;;;;;;;11.97;5.15;;;;;;;1.35;100.00;99953.85;4195303;83;21075;-89
2022/12/28 02:28:38;;;;;;;14.30;6.35;;;;;;;1.23;100.00;99957.53;4215217;83;21023;-89
2022/12/28 02:35:00;;;;;;;15.93;6.10;;;;;;;1.12;100.00;99964.97;4235270;83;21082;-89
2022/12/28 02:41:12;;;;;;;16.27;6.17;;;;;;;1.03;100.00;99963.20;4281302;81;21026;-90
2022/12/28 02:53:53;;;;;;;16.42;6.37;;;;;;;0.69;100.00;99947.72;4264085;81;21577;-89
2022/12/28 03:00:15;;;;;;;12.65;5.78;;;;;;;0.48;100.00;99944.45;4193050;83;21041;-89
2022/12/28 03:13:42;;;;;;;12.33;5.30;;;;;;;0.27;100.00;99899.16;4270870;81;21716;-89
2022/12/28 03:32:40;;;;;;;12.47;4.60;;;;;;;0.21;100.00;99886.81;4284252;81;21013;-89
2022/12/28 03:39:17;;;;;;;8.10;3.80;;;;;;;0.12;100.00;99893.38;4280522;81;21112;-90
2022/12/28 03:45:57;;;;;;;11.55;4.05;;;;;;;0.04;100.00;99883.23;4255249;81;21059;-90
2022/12/28 03:52:01;;;;;;;10.90;4.65;;;;;;;-0.24;100.00;99877.31;4280078;81;21096;-89
2022/12/28 03:58:04;;;;;;;8.10;4.50;;;;;;;-0.24;100.00;99877.31;4251449;81;21047;-90
2022/12/28 04:04:07;;;;;;;12.68;6.30;;;;;;;-0.25;100.00;99900.72;4248155;81;21739;-90
2022/12/28 04:10:11;;;;;;;11.90;5.22;;;;;;;-0.35;100.00;99896.79;4199654;81;109999;-90
2022/12/28 04:16:13;;;;;;;13.10;5.53;;;;;;;-0.59;100.00;99859.59;4022084;86;21546;-88
2022/12/28 04:22:16;;;;;;;14.85;5.60;;;;;;;-0.59;100.00;99859.59;4002852;87;21657;-89
2022/12/28 04:28:18;;;;;;;17.95;7.37;;;;;;;-0.66;100.00;99871.19;4001155;87;21123;-90
2022/12/28 04:34:38;;;;;;;12.43;6.22;;;;;;;-0.61;100.00;99863.09;4004086;87;21134;-90
2022/12/28 04:40:42;;;;;;;11.35;5.28;;;;;;;-0.61;100.00;99863.09;4013572;87;22248;-89
2022/12/28 04:46:44;;;;;;;13.20;5.25;;;;;;;-0.58;100.00;99859.84;4007911;87;21038;-89
2022/12/28 04:52:46;;;;;;;8.33;3.75;;;;;;;-0.55;100.00;99850.42;4012981;87;21522;-90
2022/12/28 04:58:50;;;;;;;10.23;3.02;;;;;;;-0.48;100.00;99854.91;4015395;87;21076;-89
2022/12/28 05:04:51;;;;;;;6.17;2.98;;;;;;;-0.50;100.00;99823.48;4012889;86;21139;-90
2022/12/28 05:10:53;;;;;;;5.15;2.67;;;;;;;-0.24;100.00;99839.11;4012984;87;22030;-90
2022/12/28 05:16:55;;;;;;;9.03;3.80;;;;;;;-0.29;100.00;99831.08;4027874;86;21048;-90
2022/12/28 05:22:56;;;;;;;6.75;2.58;;;;;;;-0.32;100.00;99833.00;4045308;86;21516;-89
2022/12/28 05:28:58;;;;;;;6.83;3.20;;;;;;;-0.24;100.00;99827.00;4024482;86;21955;-89
2022/12/28 05:34:59;;;;;;;6.53;3.00;;;;;;;-0.18;100.00;99827.73;4032196;86;21613;-88
2022/12/28 05:41:14;;;;;;;5.87;2.42;;;;;;;-0.21;100.00;99830.47;4033784;86;21121;-89
2022/12/28 05:47:15;;;;;;;5.17;2.40;;;;;;;-0.13;100.00;99820.44;4034938;86;21110;-89
2022/12/28 05:53:17;;;;;;;4.78;2.95;;;;;;;0.06;100.00;99816.45;4041524;86;21123;-88
2022/12/28 05:59:18;;;;;;;5.55;2.67;;;;;;;0.16;100.00;99808.81;4037369;86;21053;-89
2022/12/28 06:05:20;;;;;;;6.10;2.58;;;;;;;0.20;100.00;99806.60;4038303;86;21026;-90
2022/12/28 06:11:25;;;;;;;10.58;2.55;;;;;;;0.20;100.00;99806.60;4032254;86;21571;-89
2022/12/28 06:17:27;;;;;;;8.68;2.50;;;;;;;0.17;100.00;99803.14;4010085;86;21105;-89
2022/12/28 06:23:29;;;;;;;10.23;2.55;;;;;;;0.25;100.00;99801.13;4002370;87;21157;-91
2022/12/28 06:29:31;;;;;;;5.75;2.35;;;;;;;0.17;100.00;99792.91;4009615;87;21426;-89
2022/12/28 06:35:33;;;;;;;6.20;2.25;;;;;;;-0.08;100.00;99761.14;4006233;87;21156;-89
2022/12/28 06:41:35;;;;;;;6.95;2.98;;;;;;;0.16;100.00;99785.92;4006516;87;21082;-88
2022/12/28 06:47:38;;;;;;;8.15;2.77;;;;;;;0.38;100.00;99782.94;4008370;87;20995;-88
2022/12/28 06:53:41;;;;;;;5.05;2.00;;;;;;;0.62;100.00;99774.80;4007024;87;21109;-89
2022/12/28 06:59:43;;;;;;;7.97;3.12;;;;;;;0.83;100.00;99777.47;4009081;87;21071;-89
2022/12/28 07:05:45;;;;;;;6.65;2.72;;;;;;;0.93;99.87;99778.11;4009488;87;21053;-88
2022/12/28 07:11:50;;;;;;;11.75;3.20;;;;;;;0.98;99.45;99771.84;4011502;87;21590;-89
2022/12/28 07:17:53;;;;;;;6.53;2.83;;;;;;;1.04;99.26;99760.69;4010135;87;21100;-90
2022/12/28 07:23:58;;;;;;;7.42;2.58;;;;;;;1.08;99.37;99742.81;4014813;87;21084;-90
2022/12/28 07:30:10;;;;;;;8.13;3.08;;;;;;;1.13;98.83;99749.47;4005465;87;21415;-91
2022/12/28 07:36:22;;;;;;;9.25;2.50;;;;;;;1.14;99.50;99743.55;4007020;87;21137;-91
2022/12/28 07:42:22;;;;;;;7.08;2.42;;;;;;;1.31;99.97;99742.44;3986502;87;21098;-90
2022/12/28 07:48:25;;;;;;;8.10;2.52;;;;;;;1.53;99.91;99730.45;4006164;87;22100;-91
2022/12/28 07:54:27;;;;;;;8.30;3.40;;;;;;;1.71;99.90;99735.52;4004901;87;21095;-89
2022/12/28 08:00:56;;;;;;;9.80;2.67;;;;;;;1.89;99.68;99731.91;4011483;87;21125;-89
2022/12/28 08:06:58;;;;;;;7.17;2.95;;;;;;;1.96;99.45;99730.41;3989931;87;21097;-91
2022/12/28 08:13:22;;;;;;;6.30;3.50;;;;;;;2.09;99.47;99731.50;3992696;87;21126;-91
2022/12/28 08:19:20;;;;;;;10.45;4.67;;;;;;;2.19;99.33;99728.06;3988844;87;21191;-91
2022/12/28 08:25:26;;;;;;;23.13;10.47;;;;;;;2.34;99.03;99721.51;4016343;87;21054;-91
2022/12/28 08:31:36;;;;;;;18.23;6.40;;;;;;;2.34;99.03;99721.51;4008359;87;21092;-91
2022/12/28 08:37:41;;;;;;;16.00;5.87;;;;;;;2.42;98.94;99718.09;3944191;89;21111;-90
2022/12/28 08:43:46;;;;;;;18.40;10.30;;;;;;;2.54;98.75;99718.36;4010009;87;21073;-92
2022/12/28 08:50:03;;;;;;;22.25;11.60;;;;;;;2.63;98.98;99717.33;4008298;86;21131;-91
2022/12/28 08:56:26;;;;;;;35.60;12.40;;;;;;;2.80;99.07;99718.81;4010827;87;21045;-91
2022/12/28 09:02:31;;;;;;;31.20;11.70;;;;;;;3.12;99.53;99725.34;4001542;87;21427;-91
2022/12/28 09:08:41;;;;;;;25.05;10.03;;;;;;;3.42;99.50;99717.02;3999903;87;20986;-91
2022/12/28 09:14:42;;;;;;;17.10;7.17;;;;;;;3.72;99.54;99711.34;3985181;86;21185;-91
2022/12/28 09:20:46;;;;;;;13.58;5.50;;;;;;;4.41;99.75;99709.88;4034792;86;21104;-91
2022/12/28 09:26:53;;;;;;;9.63;4.05;;;;;;;5.04;99.34;99707.08;4027466;86;21081;-91
2022/12/28 09:39:23;;;;;;;7.40;3.45;;;;;;;5.81;97.66;99697.59;3968790;88;22252;-90
2022/12/28 09:45:32;;;;;;;8.30;3.58;;;;;;;6.08;97.04;99693.65;4039858;86;21284;-89
2022/12/28 09:51:42;;;;;;;9.45;4.55;;;;;;;6.35;95.90;99696.70;4037318;86;21093;-91
2022/12/28 09:58:05;;;;;;;12.60;4.87;;;;;;;6.55;94.24;99684.78;4001908;86;21629;-91
2022/12/28 10:04:06;;;;;;;10.60;4.92;;;;;;;6.35;94.32;99673.59;4027654;86;21134;-91
2022/12/28 10:10:14;;;;;;;13.68;5.28;;;;;;;6.42;93.50;99676.34;4033128;86;21034;-90
2022/12/28 10:16:19;;;;;;;11.68;5.90;;;;;;;6.35;94.14;99664.06;4032901;86;21201;-91
2022/12/28 10:22:27;;;;;;;12.23;5.72;;;;;;;6.26;92.66;99659.23;4039888;86;21756;-90
2022/12/28 10:28:56;;;;;;;12.18;5.72;;;;;;;6.10;92.24;99663.67;4039346;86;21095;-90
2022/12/28 10:35:07;;;;;;;10.05;4.90;;;;;;;5.92;92.79;99658.09;4034962;85;21195;-91
2022/12/28 10:41:15;;;;;;;10.90;4.75;;;;;;;5.80;92.21;99651.73;4037809;86;21118;-91
2022/12/28 10:47:38;;;;;;;16.73;5.08;;;;;;;5.66;92.18;99646.53;4036985;86;21143;-89
2022/12/28 10:53:54;;;;;;;13.05;5.03;;;;;;;5.55;92.44;99641.23;4040840;86;21028;-90
2022/12/28 11:00:29;;;;;;;7.95;4.78;;;;;;;5.51;91.76;99638.13;4032619;85;21078;-91
2022/12/28 11:06:35;;;;;;;10.68;5.10;;;;;;;5.50;92.40;99627.02;4044300;86;21563;-90
2022/12/28 11:12:46;;;;;;;11.20;5.58;;;;;;;5.33;92.65;99589.08;4041146;86;21910;-89
2022/12/28 11:18:50;;;;;;;;;;;;;;;5.32;92.32;99577.45;4022228;86;21156;-90
2022/12/28 11:25:06;;;;;;;;;;;;;;;;;;;;;
2022/12/28 11:31:07;;;;;;;9.05;3.77;;;;;;;5.46;92.00;99559.56;4010001;87;21126;-90
2022/12/28 11:37:19;;;;;;;9.45;4.12;;;;;;;5.54;91.79;99553.30;4006608;87;21101;-91
2022/12/28 11:43:38;;;;;;;10.50;3.92;;;;;;;5.64;91.52;99540.67;3887184;89;21226;-89
2022/12/28 11:49:46;;;;;;;7.33;4.00;;;;;;;5.69;91.15;99533.15;4003715;87;21113;-89
2022/12/28 11:56:08;;;;;;;8.85;4.20;;;;;;;5.70;91.42;99521.73;4011907;87;21152;-90
2022/12/28 12:02:31;;;;;;;10.23;4.75;;;;;;;5.73;91.34;99515.05;3988022;87;21085;-89
2022/12/28 12:08:39;;;;;;;7.40;3.65;;;;;;;5.78;90.80;99505.94;3940640;87;100858;-90
2022/12/28 12:14:48;;;;;;;9.30;3.85;;;;;;;5.82;90.89;99500.89;3888545;90;21849;-89
2022/12/28 12:21:07;;;;;;;8.38;4.35;;;;;;;5.84;88.14;99483.67;3890104;90;21098;-89
2022/12/28 12:27:35;;;;;;;9.48;4.40;;;;;;;5.93;89.21;99468.67;3887125;90;21639;-91
2022/12/28 12:33:42;;;;;;;9.70;4.03;;;;;;;6.17;88.57;99461.41;3869483;90;21106;-89
2022/12/28 12:40:01;;;;;;;11.22;4.47;;;;;;;6.40;88.42;99455.81;3892722;90;21166;-90
2022/12/28 12:46:27;;;;;;;7.65;3.70;;;;;;;6.48;87.25;99441.91;3895576;90;21060;-90
2022/12/28 12:52:41;;;;;;;;;;;;;;;6.53;87.86;99434.88;3892002;90;21111;-90
2022/12/28 12:59:10;;;;;;;6.05;3.33;;;;;;;6.52;87.05;99417.53;3894855;90;20421;-88
2022/12/28 13:05:21;;;;;;;5.97;2.72;;;;;;;6.43;87.09;99414.13;3870199;90;21124;-89
2022/12/28 13:11:24;;;;;;;4.67;2.45;;;;;;;6.47;85.17;99410.98;3891553;90;21698;-89
2022/12/28 13:17:27;;;;;;;6.80;3.08;;;;;;;6.39;85.40;99401.76;3893212;89;21725;-90
2022/12/28 13:23:32;;;;;;;6.15;2.12;;;;;;;6.22;84.12;99407.39;3927665;89;21018;-90
2022/12/28 13:29:40;;;;;;;5.08;2.80;;;;;;;6.05;83.00;99399.42;3932236;89;21046;-89
2022/12/28 13:35:42;;;;;;;5.60;2.67;;;;;;;6.04;84.28;99400.00;3927816;89;21073;-89
2022/12/28 13:41:55;;;;;;;7.10;3.37;;;;;;;6.04;82.57;99404.63;3914291;89;21109;-90
2022/12/28 13:47:57;;;;;;;7.35;2.95;;;;;;;5.99;83.13;99393.41;3922621;89;21542;-90
2022/12/28 13:54:00;;;;;;;5.53;2.83;;;;;;;5.97;82.56;99383.98;3930014;89;21089;-89
2022/12/28 14:00:06;;;;;;;6.78;2.80;;;;;;;5.92;83.17;99379.56;3907914;89;21069;-90
2022/12/28 14:06:09;;;;;;;7.42;2.67;;;;;;;5.89;81.36;99347.63;3899131;89;21089;-89
2022/12/28 14:12:13;;;;;;;5.45;2.65;;;;;;;5.87;82.15;99345.80;3918165;89;21145;-90
2022/12/28 14:18:20;;;;;;;5.90;3.50;;;;;;;5.79;81.17;99345.31;3919747;89;21069;-89
2022/12/28 14:24:23;;;;;;;13.32;3.87;;;;;;;5.75;79.29;99338.14;3924189;89;21096;-89
2022/12/28 14:30:40;;;;;;;6.40;3.25;;;;;;;5.62;81.06;99342.74;3893043;89;21290;-89
2022/12/28 14:36:53;;;;;;;6.70;3.40;;;;;;;5.49;81.20;99352.54;3936975;89;21037;-89
2022/12/28 14:43:19;;;;;;;13.38;4.55;;;;;;;5.26;81.00;99349.36;3928713;89;21076;-89
2022/12/28 14:49:33;;;;;;;9.98;4.22;;;;;;;5.07;81.38;99356.38;3921141;89;21023;-89
2022/12/28 14:55:59;;;;;;;8.18;3.83;;;;;;;4.90;81.46;99352.42;3916355;89;21065;-88
2022/12/28 15:02:02;;;;;;;9.18;3.92;;;;;;;4.81;80.88;99348.40;3920197;89;21129;-89
2022/12/28 15:08:06;;;;;;;11.78;4.20;;;;;;;4.77;81.43;99352.34;3920198;89;21065;-88
2022/12/28 15:14:08;;;;;;;10.55;4.37;;;;;;;4.62;81.06;99350.18;3908244;90;21691;-87
2022/12/28 15:20:10;;;;;;;9.65;4.55;;;;;;;4.44;81.51;99352.75;3965206;88;21530;-89
2022/12/28 15:26:18;;;;;;;13.53;5.25;;;;;;;4.29;81.95;99343.02;3957704;88;21079;-90
2022/12/28 15:32:20;;;;;;;14.18;5.85;;;;;;;4.24;81.80;99337.22;3903212;90;21038;-89
2022/12/28 15:38:21;;;;;;;12.28;5.78;;;;;;;4.16;81.94;99341.30;3912241;88;21634;-89
2022/12/28 15:44:23;;;;;;;10.10;4.67;;;;;;;3.98;82.23;99331.08;3973604;87;21030;-88
2022/12/28 15:50:25;;;;;;;16.05;6.53;;;;;;;3.89;82.41;99327.60;3885540;90;21670;-90
2022/12/28 15:56:33;;;;;;;9.73;4.92;;;;;;;3.78;82.63;99322.30;3955137;88;21028;-90
2022/12/28 16:02:34;;;;;;;10.82;5.50;;;;;;;3.71;82.64;99318.49;3883789;90;21122;-88
2022/12/28 16:08:39;;;;;;;12.15;5.37;;;;;;;3.78;82.57;99320.13;3973282;88;21088;-90
2022/12/28 16:14:45;;;;;;;10.65;5.65;;;;;;;3.76;82.79;99307.50;3972792;88;21042;-90
2022/12/28 16:20:47;;;;;;;21.45;5.95;;;;;;;3.77;82.73;99299.59;3946904;88;21392;-88
2022/12/28 16:26:49;;;;;;;15.78;6.47;;;;;;;3.73;82.89;99302.73;3956640;88;21099;-89
2022/12/28 16:32:51;;;;;;;13.38;6.45;;;;;;;3.76;82.87;99302.86;3964791;88;21095;-87
2022/12/28 16:38:53;;;;;;;13.30;6.62;;;;;;;3.95;82.09;99295.16;3960922;88;22042;-88
2022/12/28 16:45:08;;;;;;;17.65;6.78;;;;;;;4.06;81.83;99284.20;3963210;88;21632;-88
2022/12/28 16:51:18;;;;;;;21.97;7.83;;;;;;;3.99;81.90;99292.05;3931664;88;21069;-90
2022/12/28 16:57:20;;;;;;;19.82;7.60;;;;;;;3.93;82.03;99284.42;3970821;88;21087;-88
2022/12/28 17:03:22;;;;;;;21.23;8.38;;;;;;;3.86;81.86;99280.86;3969077;88;21673;-89
2022/12/28 17:09:24;;;;;;;25.62;10.23;;;;;;;3.83;82.09;99282.05;3958083;88;21111;-89
2022/12/28 17:15:32;;;;;;;22.30;10.03;;;;;;;3.66;82.45;99280.75;3968257;88;21288;-90
2022/12/28 17:21:34;;;;;;;20.17;8.73;;;;;;;3.53;82.49;99274.41;3942485;89;21093;-89
2022/12/28 17:27:36;;;;;;;18.15;7.47;;;;;;;3.38;82.81;99275.48;3939333;89;21302;-89
2022/12/28 17:33:56;;;;;;;16.00;8.13;;;;;;;3.27;83.01;99269.61;3939653;87;21105;-89
2022/12/28 17:40:00;;;;;;;18.80;7.80;;;;;;;3.16;83.17;99260.23;3920019;89;22144;-90
2022/12/28 17:46:05;;;;;;;19.52;8.53;;;;;;;3.18;83.19;99253.37;3915487;89;21075;-89
2022/12/28 17:52:06;;;;;;;19.32;9.73;;;;;;;3.18;83.72;99258.78;3936376;89;21654;-89
2022/12/28 17:58:10;;;;;;;28.12;10.38;;;;;;;3.15;83.78;99248.61;3940466;89;21699;-90
2022/12/28 18:04:16;;;;;;;25.55;11.30;;;;;;;3.09;83.95;99245.83;3892423;90;21119;-87
2022/12/28 18:10:21;;;;;;;26.40;10.97;;;;;;;2.92;84.34;99253.16;3914725;89;21142;-89
2022/12/28 18:16:30;;;;;;;27.45;15.03;;;;;;;2.75;84.82;99259.36;3835709;90;28308;-89
2022/12/28 18:22:32;;;;;;;25.90;11.70;;;;;;;2.75;84.31;99251.25;3962530;88;21115;-89
2022/12/28 18:28:35;;;;;;;34.40;15.18;;;;;;;2.57;84.92;99249.62;3966339;88;21084;-88
2022/12/28 18:34:36;;;;;;;31.33;14.15;;;;;;;2.44;85.49;99250.58;3969272;88;21101;-90
2022/12/28 18:40:38;;;;;;;23.35;12.00;;;;;;;2.36;85.49;99249.20;3972116;88;22027;-88
2022/12/28 18:46:40;;;;;;;25.40;10.70;;;;;;;2.35;85.59;99244.34;3958985;89;21768;-88
2022/12/28 18:52:45;;;;;;;25.30;11.68;;;;;;;2.37;85.95;99246.73;3929102;88;21091;-89
2022/12/28 18:58:53;;;;;;;24.43;10.05;;;;;;;2.21;86.00;99241.55;3904534;89;21104;-88
2022/12/28 19:04:55;;;;;;;17.40;8.98;;;;;;;2.24;86.44;99236.30;3908911;89;21968;-89
2022/12/28 19:10:57;;;;;;;17.85;7.42;;;;;;;2.24;86.66;99240.34;3967863;88;21624;-88
2022/12/28 19:16:58;;;;;;;17.32;7.35;;;;;;;2.26;86.90;99234.08;3798956;88;10000246;-89
2022/12/28 19:23:02;;;;;;;20.08;7.50;;;;;;;2.16;87.00;99239.77;4026538;87;21070;-89
2022/12/28 19:29:06;;;;;;;21.75;7.58;;;;;;;2.26;87.45;99237.33;4021810;87;21008;-88
2022/12/28 19:35:08;;;;;;;16.40;7.70;;;;;;;2.38;87.10;99239.66;4026647;87;21915;-90
2022/12/28 19:41:13;;;;;;;22.87;7.50;;;;;;;2.52;87.11;99233.56;4024129;87;22329;-87
2022/12/28 19:47:15;;;;;;;16.50;7.42;;;;;;;2.54;87.06;99224.59;4026039;86;21710;-89
2022/12/28 19:53:16;;;;;;;17.57;7.40;;;;;;;2.50;87.25;99227.70;4026123;87;21115;-88
2022/12/28 19:59:20;;;;;;;23.30;10.58;;;;;;;2.36;87.08;99225.69;4025971;87;21063;-89
2022/12/28 20:05:22;;;;;;;21.68;10.20;;;;;;;2.27;87.02;99219.45;4031124;87;21033;-88
2022/12/28 20:11:25;;;;;;;18.75;7.87;;;;;;;2.27;87.08;99210.00;4025488;87;21099;-89
2022/12/28 20:17:28;;;;;;;24.23;10.00;;;;;;;2.27;87.09;99203.25;4006058;87;21379;-89
2022/12/28 20:23:30;;;;;;;27.50;11.65;;;;;;;2.27;86.95;99200.55;4004501;87;21100;-88
2022/12/28 20:29:38;;;;;;;27.10;11.88;;;;;;;2.26;86.87;99200.31;4015049;87;21549;-88
2022/12/28 20:35:40;;;;;;;21.97;9.38;;;;;;;2.26;86.87;99192.76;3991102;86;22268;-88
2022/12/28 20:48:02;;;;;;;25.90;11.25;;;;;;;2.30;86.73;99191.03;4009893;87;21100;-89
2022/12/28 20:54:04;;;;;;;41.08;18.07;;;;;;;2.33;86.40;99194.45;4010441;87;22133;-89
2022/12/28 21:00:10;;;;;;;61.53;25.17;;;;;;;2.22;86.37;99198.02;4013336;87;21068;-88
2022/12/28 21:06:13;;;;;;;31.12;13.78;;;;;;;2.04;86.40;99182.88;4009279;87;21822;-89
2022/12/28 21:12:14;;;;;;;36.20;15.85;;;;;;;1.92;86.55;99180.00;4016063;87;21529;-88
2022/12/28 21:18:17;;;;;;;42.23;18.05;;;;;;;1.93;86.54;99178.87;4019599;86;21167;-88
2022/12/28 21:24:20;;;;;;;43.87;19.02;;;;;;;1.85;86.42;99174.81;4038385;86;21585;-88
2022/12/28 21:30:25;;;;;;;49.65;20.90;;;;;;;1.72;86.54;99174.38;4047373;87;21114;-88
2022/12/28 21:36:27;;;;;;;43.17;16.30;;;;;;;1.59;86.68;99175.53;4042435;87;21769;-89
2022/12/28 21:42:29;;;;;;;30.52;13.55;;;;;;;1.60;86.81;99166.31;4036593;87;21067;-88
2022/12/28 21:48:35;;;;;;;37.53;14.45;;;;;;;1.57;86.76;99160.73;4041586;87;21224;-88
2022/12/28 21:54:36;;;;;;;38.10;15.45;;;;;;;1.50;86.63;99150.39;4038337;87;21077;-89
2022/12/28 22:06:51;;;;;;;64.58;30.02;;;;;;;1.23;86.93;99144.41;4016395;87;22171;-89
2022/12/28 22:12:53;;;;;;;74.22;33.58;;;;;;;1.09;87.11;99125.64;4041625;85;21466;-88
2022/12/28 22:18:58;;;;;;;60.20;27.05;;;;;;;1.02;87.53;99114.48;4034800;86;21143;-89
2022/12/28 22:25:04;;;;;;;55.03;25.52;;;;;;;0.91;87.54;99113.16;4007184;87;21116;-89
2022/12/28 22:31:12;;;;;;;57.38;24.27;;;;;;;0.86;87.84;99109.81;4014836;87;21068;-88
2022/12/28 22:37:15;;;;;;;55.63;20.75;;;;;;;0.74;88.33;99104.98;4013157;87;21069;-88
2022/12/28 22:43:19;;;;;;;46.63;20.02;;;;;;;0.53;88.57;99102.55;4013668;87;21073;-88
2022/12/28 22:49:21;;;;;;;50.08;18.45;;;;;;;0.43;88.73;99099.29;4009292;87;21052;-89
2022/12/28 22:55:25;;;;;;;50.45;19.05;;;;;;;0.32;88.85;99086.63;4015469;87;21139;-88
2022/12/28 23:01:29;;;;;;;56.25;22.45;;;;;;;0.26;89.32;99090.55;4009447;87;21112;-89
2022/12/28 23:07:34;;;;;;;34.25;14.70;;;;;;;0.18;89.22;99087.77;4006266;87;21097;-89
2022/12/28 23:13:36;;;;;;;36.80;14.35;;;;;;;0.04;89.61;99089.17;4010163;86;21941;-88
2022/12/28 23:32:21;;;;;;;39.05;14.70;;;;;;;-0.40;90.14;99074.27;4039933;86;21087;-89
2022/12/28 23:38:23;;;;;;;43.00;17.27;;;;;;;-0.43;90.47;99084.29;4040200;87;21055;-89
2022/12/28 23:44:25;;;;;;;44.00;17.73;;;;;;;-0.50;90.60;99081.23;4040620;87;21689;-90
2022/12/28 23:50:27;;;;;;;40.58;15.80;;;;;;;-0.60;90.60;99082.23;4043052;87;21100;-89
2022/12/28 23:56:29;;;;;;;46.33;21.37;;;;;;;-0.70;90.86;99081.61;4034194;87;21584;-90
